Accueil
METAR-TAF:

METAR-TAF

Aéroports :

Taunton Municipal Airport (King Field)

Taunton, Massachusetts, États-Unis

latitude: 41-52-32N, longitude: 071-01-16W, altitude: 13 m

Observation

Le bulletin a été fait il y a 39 minutes, à 06:52 UTC
Vent calme
Température 14°C
Humidité 88%
Pression 1006 hPa
Visibilité: 16.1 km
Ciel couvert à une hauteur de 6500 ft

METAR: KTAN 030652Z AUTO 00000KT 10SM OVC065 14/12 A2971 RMK AO2 SLP062 T01440122

Heure: 03:31 (07:31 UTC)


TAF: absent

Observations et prévisions météorologiques de plus de 4000 aéroports (messages METAR et TAF).

Les stations disponibles sont représentées par des disques jaunes et rouges sur la carte.

Passer la souris dessus pour voir le nom de la station.

Cliquer dessus pour voir les observations et prévisions météorologiques.

Pour changer de carte: cliquez sur les boutons verts avec une croix noire pour zoomer, sur le bouton vert avec un tiret pour effectuer un zoom arrière, ou sur les flèches vertes pour les cartes adjacentes.


METAR-TAF: